sensor_id;sensor_type;location;lat;lon;timestamp;temperature;humidity
65072;DHT22;51663;52.310;17.016;2023-05-29T00:02:31;31.00;26.40
65072;DHT22;51663;52.310;17.016;2023-05-29T00:05:34;31.10;26.50
65072;DHT22;51663;52.310;17.016;2023-05-29T00:08:37;31.00;26.40
65072;DHT22;51663;52.310;17.016;2023-05-29T00:11:39;31.00;26.60
65072;DHT22;51663;52.310;17.016;2023-05-29T00:14:42;30.90;26.90
65072;DHT22;51663;52.310;17.016;2023-05-29T00:17:44;31.00;27.00
65072;DHT22;51663;52.310;17.016;2023-05-29T00:20:46;31.00;27.10
65072;DHT22;51663;52.310;17.016;2023-05-29T00:23:49;31.00;27.10
65072;DHT22;51663;52.310;17.016;2023-05-29T00:26:51;30.90;27.10
65072;DHT22;51663;52.310;17.016;2023-05-29T00:29:53;31.00;27.10
65072;DHT22;51663;52.310;17.016;2023-05-29T00:32:56;30.90;27.10
65072;DHT22;51663;52.310;17.016;2023-05-29T00:35:58;30.80;26.90
65072;DHT22;51663;52.310;17.016;2023-05-29T00:39:00;30.90;27.00
65072;DHT22;51663;52.310;17.016;2023-05-29T00:42:03;30.80;26.90
65072;DHT22;51663;52.310;17.016;2023-05-29T00:45:05;30.90;26.90
65072;DHT22;51663;52.310;17.016;2023-05-29T00:48:08;30.90;26.60
65072;DHT22;51663;52.310;17.016;2023-05-29T00:51:12;30.90;26.60
65072;DHT22;51663;52.310;17.016;2023-05-29T00:54:18;30.80;26.50
65072;DHT22;51663;52.310;17.016;2023-05-29T00:57:23;30.90;26.40
65072;DHT22;51663;52.310;17.016;2023-05-29T01:00:25;30.90;26.40
65072;DHT22;51663;52.310;17.016;2023-05-29T01:03:28;30.80;26.20
65072;DHT22;51663;52.310;17.016;2023-05-29T01:06:30;30.80;26.30
65072;DHT22;51663;52.310;17.016;2023-05-29T01:09:32;30.80;26.40
65072;DHT22;51663;52.310;17.016;2023-05-29T01:12:50;30.80;26.50
65072;DHT22;51663;52.310;17.016;2023-05-29T01:16:11;30.80;26.40
65072;DHT22;51663;52.310;17.016;2023-05-29T01:26:35;30.80;26.30
65072;DHT22;51663;52.310;17.016;2023-05-29T01:29:41;30.80;26.20
65072;DHT22;51663;52.310;17.016;2023-05-29T01:32:44;30.70;26.40
65072;DHT22;51663;52.310;17.016;2023-05-29T01:35:47;30.70;26.30
65072;DHT22;51663;52.310;17.016;2023-05-29T01:38:50;30.70;26.50
65072;DHT22;51663;52.310;17.016;2023-05-29T01:41:53;30.70;26.70
65072;DHT22;51663;52.310;17.016;2023-05-29T01:44:57;30.60;26.60
65072;DHT22;51663;52.310;17.016;2023-05-29T01:48:00;30.50;26.60
65072;DHT22;51663;52.310;17.016;2023-05-29T01:51:02;30.50;26.50
65072;DHT22;51663;52.310;17.016;2023-05-29T01:54:04;30.40;26.40
65072;DHT22;51663;52.310;17.016;2023-05-29T01:57:07;30.50;26.20
65072;DHT22;51663;52.310;17.016;2023-05-29T02:00:10;30.50;26.10
65072;DHT22;51663;52.310;17.016;2023-05-29T02:03:12;30.60;26.20
65072;DHT22;51663;52.310;17.016;2023-05-29T02:06:15;30.50;25.90
65072;DHT22;51663;52.310;17.016;2023-05-29T02:09:17;30.60;26.00
65072;DHT22;51663;52.310;17.016;2023-05-29T02:12:20;30.50;25.90
65072;DHT22;51663;52.310;17.016;2023-05-29T02:15:22;30.50;25.90
65072;DHT22;51663;52.310;17.016;2023-05-29T02:18:24;30.40;26.10
65072;DHT22;51663;52.310;17.016;2023-05-29T02:21:27;30.40;26.30
65072;DHT22;51663;52.310;17.016;2023-05-29T02:24:29;30.40;26.10
65072;DHT22;51663;52.310;17.016;2023-05-29T02:27:31;30.30;26.20
65072;DHT22;51663;52.310;17.016;2023-05-29T02:30:34;30.40;26.30
65072;DHT22;51663;52.310;17.016;2023-05-29T02:33:36;30.40;26.30
65072;DHT22;51663;52.310;17.016;2023-05-29T02:36:38;30.50;26.60
65072;DHT22;51663;52.310;17.016;2023-05-29T02:39:40;30.40;26.50
65072;DHT22;51663;52.310;17.016;2023-05-29T02:42:43;30.40;26.30
65072;DHT22;51663;52.310;17.016;2023-05-29T02:45:46;30.40;26.20
65072;DHT22;51663;52.310;17.016;2023-05-29T02:48:48;30.40;26.20
65072;DHT22;51663;52.310;17.016;2023-05-29T02:51:50;30.30;26.20
65072;DHT22;51663;52.310;17.016;2023-05-29T02:54:54;30.40;26.20
65072;DHT22;51663;52.310;17.016;2023-05-29T02:57:58;30.50;26.20
65072;DHT22;51663;52.310;17.016;2023-05-29T03:01:02;30.50;26.30
65072;DHT22;51663;52.310;17.016;2023-05-29T03:04:04;30.70;26.20
65072;DHT22;51663;52.310;17.016;2023-05-29T03:07:06;30.40;26.30
65072;DHT22;51663;52.310;17.016;2023-05-29T03:10:11;30.40;26.60
65072;DHT22;51663;52.310;17.016;2023-05-29T03:13:13;30.30;26.90
65072;DHT22;51663;52.310;17.016;2023-05-29T03:16:16;30.50;26.80
65072;DHT22;51663;52.310;17.016;2023-05-29T03:19:18;30.60;26.60
65072;DHT22;51663;52.310;17.016;2023-05-29T03:22:20;30.60;26.60
65072;DHT22;51663;52.310;17.016;2023-05-29T03:25:23;30.60;26.60
65072;DHT22;51663;52.310;17.016;2023-05-29T03:28:25;30.70;26.80
65072;DHT22;51663;52.310;17.016;2023-05-29T03:31:28;30.90;26.60
65072;DHT22;51663;52.310;17.016;2023-05-29T03:34:30;31.10;26.50
65072;DHT22;51663;52.310;17.016;2023-05-29T03:37:33;31.30;26.30
65072;DHT22;51663;52.310;17.016;2023-05-29T03:40:36;31.50;26.00
65072;DHT22;51663;52.310;17.016;2023-05-29T03:43:38;31.60;26.00
65072;DHT22;51663;52.310;17.016;2023-05-29T03:46:40;31.70;25.70
65072;DHT22;51663;52.310;17.016;2023-05-29T03:49:43;31.70;25.40
65072;DHT22;51663;52.310;17.016;2023-05-29T03:52:45;31.90;25.40
65072;DHT22;51663;52.310;17.016;2023-05-29T03:55:47;32.10;25.50
65072;DHT22;51663;52.310;17.016;2023-05-29T03:58:49;32.20;25.40
65072;DHT22;51663;52.310;17.016;2023-05-29T04:01:52;32.30;25.50
65072;DHT22;51663;52.310;17.016;2023-05-29T04:04:54;32.50;25.40
65072;DHT22;51663;52.310;17.016;2023-05-29T04:07:57;32.60;25.50
65072;DHT22;51663;52.310;17.016;2023-05-29T04:11:16;32.70;25.50
65072;DHT22;51663;52.310;17.016;2023-05-29T04:14:18;33.00;25.30
65072;DHT22;51663;52.310;17.016;2023-05-29T04:17:21;33.30;25.20
65072;DHT22;51663;52.310;17.016;2023-05-29T04:20:23;33.50;25.00
65072;DHT22;51663;52.310;17.016;2023-05-29T04:23:25;33.60;25.40
65072;DHT22;51663;52.310;17.016;2023-05-29T04:26:28;33.70;25.30
65072;DHT22;51663;52.310;17.016;2023-05-29T04:29:30;33.90;25.40
65072;DHT22;51663;52.310;17.016;2023-05-29T04:32:32;34.00;25.40
65072;DHT22;51663;52.310;17.016;2023-05-29T04:35:35;34.60;25.50
65072;DHT22;51663;52.310;17.016;2023-05-29T04:38:37;35.70;24.50
65072;DHT22;51663;52.310;17.016;2023-05-29T04:41:42;36.20;24.20
65072;DHT22;51663;52.310;17.016;2023-05-29T04:44:44;35.80;24.10
65072;DHT22;51663;52.310;17.016;2023-05-29T04:47:46;35.00;24.60
65072;DHT22;51663;52.310;17.016;2023-05-29T04:50:49;35.20;24.50
65072;DHT22;51663;52.310;17.016;2023-05-29T04:53:51;35.20;24.60
65072;DHT22;51663;52.310;17.016;2023-05-29T04:56:53;35.60;24.40
65072;DHT22;51663;52.310;17.016;2023-05-29T04:59:55;36.70;23.70
65072;DHT22;51663;52.310;17.016;2023-05-29T05:02:58;37.40;23.40
65072;DHT22;51663;52.310;17.016;2023-05-29T05:06:00;37.40;23.20
65072;DHT22;51663;52.310;17.016;2023-05-29T05:09:07;38.10;22.80
65072;DHT22;51663;52.310;17.016;2023-05-29T05:12:09;39.20;22.20
65072;DHT22;51663;52.310;17.016;2023-05-29T05:15:12;40.10;22.20
65072;DHT22;51663;52.310;17.016;2023-05-29T05:18:14;40.70;21.60
65072;DHT22;51663;52.310;17.016;2023-05-29T05:21:16;40.90;20.80
65072;DHT22;51663;52.310;17.016;2023-05-29T05:24:18;40.80;20.70
65072;DHT22;51663;52.310;17.016;2023-05-29T05:27:21;39.90;21.10
65072;DHT22;51663;52.310;17.016;2023-05-29T05:30:23;39.20;21.40
65072;DHT22;51663;52.310;17.016;2023-05-29T05:33:25;39.20;21.90
65072;DHT22;51663;52.310;17.016;2023-05-29T05:36:27;39.50;21.90
65072;DHT22;51663;52.310;17.016;2023-05-29T05:39:29;39.40;22.10
65072;DHT22;51663;52.310;17.016;2023-05-29T05:42:31;39.30;21.90
65072;DHT22;51663;52.310;17.016;2023-05-29T05:45:33;39.70;22.00
65072;DHT22;51663;52.310;17.016;2023-05-29T05:48:36;40.30;21.50
65072;DHT22;51663;52.310;17.016;2023-05-29T05:51:38;39.80;21.50
65072;DHT22;51663;52.310;17.016;2023-05-29T05:54:40;39.90;21.80
65072;DHT22;51663;52.310;17.016;2023-05-29T05:57:42;40.30;21.60
65072;DHT22;51663;52.310;17.016;2023-05-29T06:00:44;40.50;21.40
65072;DHT22;51663;52.310;17.016;2023-05-29T06:03:47;41.00;21.10
65072;DHT22;51663;52.310;17.016;2023-05-29T06:06:49;41.30;21.00
65072;DHT22;51663;52.310;17.016;2023-05-29T06:09:51;41.70;20.30
65072;DHT22;51663;52.310;17.016;2023-05-29T06:12:54;42.20;20.10
65072;DHT22;51663;52.310;17.016;2023-05-29T06:15:56;42.40;20.50
65072;DHT22;51663;52.310;17.016;2023-05-29T06:18:58;42.70;20.10
65072;DHT22;51663;52.310;17.016;2023-05-29T06:22:00;43.10;19.80
65072;DHT22;51663;52.310;17.016;2023-05-29T06:25:03;42.40;19.60
65072;DHT22;51663;52.310;17.016;2023-05-29T06:28:08;42.50;20.10
65072;DHT22;51663;52.310;17.016;2023-05-29T06:31:10;42.00;20.10
65072;DHT22;51663;52.310;17.016;2023-05-29T06:34:12;42.00;20.10
65072;DHT22;51663;52.310;17.016;2023-05-29T06:37:14;42.10;20.30
65072;DHT22;51663;52.310;17.016;2023-05-29T06:40:16;42.10;20.30
65072;DHT22;51663;52.310;17.016;2023-05-29T06:43:19;42.40;20.60
65072;DHT22;51663;52.310;17.016;2023-05-29T06:46:21;42.70;19.90
65072;DHT22;51663;52.310;17.016;2023-05-29T06:49:23;42.70;20.00
65072;DHT22;51663;52.310;17.016;2023-05-29T06:52:26;43.00;20.20
65072;DHT22;51663;52.310;17.016;2023-05-29T06:55:28;42.70;20.30
65072;DHT22;51663;52.310;17.016;2023-05-29T06:58:31;42.90;19.80
65072;DHT22;51663;52.310;17.016;2023-05-29T07:01:33;43.00;19.90
65072;DHT22;51663;52.310;17.016;2023-05-29T07:04:35;43.40;19.90
65072;DHT22;51663;52.310;17.016;2023-05-29T07:07:38;43.20;19.50
65072;DHT22;51663;52.310;17.016;2023-05-29T07:10:40;43.20;19.60
65072;DHT22;51663;52.310;17.016;2023-05-29T07:13:42;43.30;20.30
65072;DHT22;51663;52.310;17.016;2023-05-29T07:16:44;43.70;20.10
65072;DHT22;51663;52.310;17.016;2023-05-29T07:19:47;43.50;19.50
65072;DHT22;51663;52.310;17.016;2023-05-29T07:22:51;42.80;19.50
65072;DHT22;51663;52.310;17.016;2023-05-29T07:25:53;41.80;20.20
65072;DHT22;51663;52.310;17.016;2023-05-29T07:28:55;41.30;20.60
65072;DHT22;51663;52.310;17.016;2023-05-29T07:31:57;41.20;20.50
65072;DHT22;51663;52.310;17.016;2023-05-29T07:35:00;41.00;21.40
65072;DHT22;51663;52.310;17.016;2023-05-29T07:38:02;41.30;21.50
65072;DHT22;51663;52.310;17.016;2023-05-29T07:41:04;41.40;21.10
65072;DHT22;51663;52.310;17.016;2023-05-29T07:44:06;40.80;21.30
65072;DHT22;51663;52.310;17.016;2023-05-29T07:47:09;40.30;21.50
65072;DHT22;51663;52.310;17.016;2023-05-29T07:50:14;39.90;21.70
65072;DHT22;51663;52.310;17.016;2023-05-29T07:53:16;39.10;22.30
65072;DHT22;51663;52.310;17.016;2023-05-29T07:56:18;39.80;22.10
65072;DHT22;51663;52.310;17.016;2023-05-29T07:59:20;40.30;22.00
65072;DHT22;51663;52.310;17.016;2023-05-29T08:02:22;39.60;22.00
65072;DHT22;51663;52.310;17.016;2023-05-29T08:05:25;39.20;22.80
65072;DHT22;51663;52.310;17.016;2023-05-29T08:08:27;39.10;22.30
65072;DHT22;51663;52.310;17.016;2023-05-29T08:11:29;39.10;22.00
65072;DHT22;51663;52.310;17.016;2023-05-29T08:14:32;38.90;21.80
65072;DHT22;51663;52.310;17.016;2023-05-29T08:17:34;39.20;21.80
65072;DHT22;51663;52.310;17.016;2023-05-29T08:20:36;39.90;21.20
65072;DHT22;51663;52.310;17.016;2023-05-29T08:23:39;39.50;22.00
65072;DHT22;51663;52.310;17.016;2023-05-29T08:26:41;39.50;21.90
65072;DHT22;51663;52.310;17.016;2023-05-29T08:29:45;39.80;22.30
65072;DHT22;51663;52.310;17.016;2023-05-29T08:32:47;40.30;21.10
65072;DHT22;51663;52.310;17.016;2023-05-29T08:35:50;40.00;21.50
65072;DHT22;51663;52.310;17.016;2023-05-29T08:38:52;39.30;21.60
65072;DHT22;51663;52.310;17.016;2023-05-29T08:42:01;38.90;22.10
65072;DHT22;51663;52.310;17.016;2023-05-29T08:45:07;39.10;22.10
65072;DHT22;51663;52.310;17.016;2023-05-29T08:48:11;38.60;22.50
65072;DHT22;51663;52.310;17.016;2023-05-29T08:51:13;38.80;22.30
65072;DHT22;51663;52.310;17.016;2023-05-29T08:54:16;38.80;22.20
65072;DHT22;51663;52.310;17.016;2023-05-29T08:57:19;38.50;22.60
65072;DHT22;51663;52.310;17.016;2023-05-29T09:00:23;38.00;23.00
65072;DHT22;51663;52.310;17.016;2023-05-29T09:03:30;37.10;23.80
65072;DHT22;51663;52.310;17.016;2023-05-29T09:06:33;36.80;24.00
65072;DHT22;51663;52.310;17.016;2023-05-29T09:09:35;36.20;24.70
65072;DHT22;51663;52.310;17.016;2023-05-29T09:12:38;36.80;24.10
65072;DHT22;51663;52.310;17.016;2023-05-29T09:15:41;36.60;23.90
65072;DHT22;51663;52.310;17.016;2023-05-29T09:18:47;36.50;24.50
65072;DHT22;51663;52.310;17.016;2023-05-29T09:21:50;37.20;23.60
65072;DHT22;51663;52.310;17.016;2023-05-29T09:24:52;37.50;23.50
65072;DHT22;51663;52.310;17.016;2023-05-29T09:27:57;36.60;23.30
65072;DHT22;51663;52.310;17.016;2023-05-29T09:31:00;36.10;23.40
65072;DHT22;51663;52.310;17.016;2023-05-29T09:34:02;35.40;24.20
65072;DHT22;51663;52.310;17.016;2023-05-29T09:37:07;35.00;24.70
65072;DHT22;51663;52.310;17.016;2023-05-29T09:40:13;35.20;24.70
65072;DHT22;51663;52.310;17.016;2023-05-29T09:43:17;35.40;24.60
65072;DHT22;51663;52.310;17.016;2023-05-29T09:46:19;36.20;24.30
65072;DHT22;51663;52.310;17.016;2023-05-29T09:49:22;36.50;23.60
65072;DHT22;51663;52.310;17.016;2023-05-29T09:52:24;37.10;22.80
65072;DHT22;51663;52.310;17.016;2023-05-29T09:55:27;36.40;22.50
65072;DHT22;51663;52.310;17.016;2023-05-29T09:58:32;35.80;23.80
65072;DHT22;51663;52.310;17.016;2023-05-29T10:01:35;35.70;24.10
65072;DHT22;51663;52.310;17.016;2023-05-29T10:04:37;36.00;23.60
65072;DHT22;51663;52.310;17.016;2023-05-29T10:07:46;36.30;23.60
65072;DHT22;51663;52.310;17.016;2023-05-29T10:11:01;36.00;24.30
65072;DHT22;51663;52.310;17.016;2023-05-29T10:14:16;37.40;22.20
65072;DHT22;51663;52.310;17.016;2023-05-29T10:17:22;35.90;24.10
65072;DHT22;51663;52.310;17.016;2023-05-29T10:20:26;36.10;23.80
65072;DHT22;51663;52.310;17.016;2023-05-29T10:23:30;37.00;23.20
65072;DHT22;51663;52.310;17.016;2023-05-29T10:26:37;37.70;22.40
65072;DHT22;51663;52.310;17.016;2023-05-29T10:30:02;37.10;23.30
65072;DHT22;51663;52.310;17.016;2023-05-29T10:37:01;36.20;24.10
65072;DHT22;51663;52.310;17.016;2023-05-29T10:40:07;37.40;22.90
65072;DHT22;51663;52.310;17.016;2023-05-29T10:43:33;38.20;22.60
65072;DHT22;51663;52.310;17.016;2023-05-29T10:49:50;36.60;23.80
65072;DHT22;51663;52.310;17.016;2023-05-29T10:52:53;36.10;24.00
65072;DHT22;51663;52.310;17.016;2023-05-29T10:55:55;36.60;24.20
65072;DHT22;51663;52.310;17.016;2023-05-29T10:58:59;36.30;23.10
65072;DHT22;51663;52.310;17.016;2023-05-29T11:02:04;36.90;23.40
65072;DHT22;51663;52.310;17.016;2023-05-29T11:05:21;36.80;23.50
65072;DHT22;51663;52.310;17.016;2023-05-29T11:08:34;37.50;22.90
65072;DHT22;51663;52.310;17.016;2023-05-29T11:11:37;37.90;22.50
65072;DHT22;51663;52.310;17.016;2023-05-29T11:14:55;38.50;22.00
65072;DHT22;51663;52.310;17.016;2023-05-29T11:18:06;38.90;20.10
65072;DHT22;51663;52.310;17.016;2023-05-29T11:24:25;39.00;21.50
65072;DHT22;51663;52.310;17.016;2023-05-29T11:27:27;37.90;23.00
65072;DHT22;51663;52.310;17.016;2023-05-29T11:30:31;37.40;21.90
65072;DHT22;51663;52.310;17.016;2023-05-29T11:33:38;36.30;22.90
65072;DHT22;51663;52.310;17.016;2023-05-29T11:36:41;36.40;22.80
65072;DHT22;51663;52.310;17.016;2023-05-29T11:39:45;36.70;23.10
65072;DHT22;51663;52.310;17.016;2023-05-29T11:42:48;36.00;24.00
65072;DHT22;51663;52.310;17.016;2023-05-29T11:45:50;35.90;23.80
65072;DHT22;51663;52.310;17.016;2023-05-29T11:48:53;35.90;23.80
65072;DHT22;51663;52.310;17.016;2023-05-29T11:52:14;35.40;23.80
65072;DHT22;51663;52.310;17.016;2023-05-29T11:55:22;35.40;23.40
65072;DHT22;51663;52.310;17.016;2023-05-29T11:58:29;34.80;24.10
65072;DHT22;51663;52.310;17.016;2023-05-29T12:01:34;35.80;22.90
65072;DHT22;51663;52.310;17.016;2023-05-29T12:04:37;36.50;23.10
65072;DHT22;51663;52.310;17.016;2023-05-29T12:07:46;36.50;23.40
65072;DHT22;51663;52.310;17.016;2023-05-29T12:10:49;36.20;22.50
65072;DHT22;51663;52.310;17.016;2023-05-29T12:13:59;36.60;22.60
65072;DHT22;51663;52.310;17.016;2023-05-29T12:17:02;37.60;21.50
65072;DHT22;51663;52.310;17.016;2023-05-29T12:20:05;37.70;21.40
65072;DHT22;51663;52.310;17.016;2023-05-29T12:23:10;37.20;21.60
65072;DHT22;51663;52.310;17.016;2023-05-29T12:26:15;37.00;21.80
65072;DHT22;51663;52.310;17.016;2023-05-29T12:29:18;37.30;21.70
65072;DHT22;51663;52.310;17.016;2023-05-29T12:32:20;37.60;21.80
65072;DHT22;51663;52.310;17.016;2023-05-29T12:35:27;38.00;21.40
65072;DHT22;51663;52.310;17.016;2023-05-29T12:38:30;38.00;20.90
65072;DHT22;51663;52.310;17.016;2023-05-29T12:41:36;37.70;20.90
65072;DHT22;51663;52.310;17.016;2023-05-29T12:44:38;37.30;20.80
65072;DHT22;51663;52.310;17.016;2023-05-29T12:47:51;37.20;21.00
65072;DHT22;51663;52.310;17.016;2023-05-29T12:50:55;37.40;21.00
65072;DHT22;51663;52.310;17.016;2023-05-29T12:53:57;38.10;21.40
65072;DHT22;51663;52.310;17.016;2023-05-29T12:57:00;38.00;21.00
65072;DHT22;51663;52.310;17.016;2023-05-29T13:00:04;38.10;20.80
65072;DHT22;51663;52.310;17.016;2023-05-29T13:03:08;38.30;20.80
65072;DHT22;51663;52.310;17.016;2023-05-29T13:06:10;39.00;20.20
65072;DHT22;51663;52.310;17.016;2023-05-29T13:09:13;39.20;19.40
65072;DHT22;51663;52.310;17.016;2023-05-29T13:12:15;38.80;19.70
65072;DHT22;51663;52.310;17.016;2023-05-29T13:15:17;39.20;19.40
65072;DHT22;51663;52.310;17.016;2023-05-29T13:18:19;39.10;20.20
65072;DHT22;51663;52.310;17.016;2023-05-29T13:21:22;39.30;20.00
65072;DHT22;51663;52.310;17.016;2023-05-29T13:24:24;39.90;19.40
65072;DHT22;51663;52.310;17.016;2023-05-29T13:27:26;39.80;19.20
65072;DHT22;51663;52.310;17.016;2023-05-29T13:30:29;39.70;19.60
65072;DHT22;51663;52.310;17.016;2023-05-29T13:33:31;39.20;19.50
65072;DHT22;51663;52.310;17.016;2023-05-29T13:36:33;39.50;19.50
65072;DHT22;51663;52.310;17.016;2023-05-29T13:39:35;39.70;19.10
65072;DHT22;51663;52.310;17.016;2023-05-29T13:42:38;40.10;19.30
65072;DHT22;51663;52.310;17.016;2023-05-29T13:45:40;40.10;19.30
65072;DHT22;51663;52.310;17.016;2023-05-29T13:48:43;40.40;18.60
65072;DHT22;51663;52.310;17.016;2023-05-29T13:51:45;40.80;18.40
65072;DHT22;51663;52.310;17.016;2023-05-29T13:54:48;41.10;18.60
65072;DHT22;51663;52.310;17.016;2023-05-29T13:57:51;41.50;18.10
65072;DHT22;51663;52.310;17.016;2023-05-29T14:00:53;41.20;18.10
65072;DHT22;51663;52.310;17.016;2023-05-29T14:03:56;41.10;18.20
65072;DHT22;51663;52.310;17.016;2023-05-29T14:06:58;41.20;18.10
65072;DHT22;51663;52.310;17.016;2023-05-29T14:10:01;41.10;17.80
65072;DHT22;51663;52.310;17.016;2023-05-29T14:13:03;40.60;18.00
65072;DHT22;51663;52.310;17.016;2023-05-29T14:16:05;40.20;18.70
65072;DHT22;51663;52.310;17.016;2023-05-29T14:19:08;39.60;18.10
65072;DHT22;51663;52.310;17.016;2023-05-29T14:22:10;39.10;18.50
65072;DHT22;51663;52.310;17.016;2023-05-29T14:25:12;38.70;18.90
65072;DHT22;51663;52.310;17.016;2023-05-29T14:28:15;38.00;19.40
65072;DHT22;51663;52.310;17.016;2023-05-29T14:31:17;38.40;20.00
65072;DHT22;51663;52.310;17.016;2023-05-29T14:34:19;39.10;19.90
65072;DHT22;51663;52.310;17.016;2023-05-29T14:37:21;39.60;19.30
65072;DHT22;51663;52.310;17.016;2023-05-29T14:40:23;39.70;18.90
65072;DHT22;51663;52.310;17.016;2023-05-29T14:43:26;38.20;20.00
65072;DHT22;51663;52.310;17.016;2023-05-29T14:46:28;38.00;19.80
65072;DHT22;51663;52.310;17.016;2023-05-29T14:49:34;36.90;20.70
65072;DHT22;51663;52.310;17.016;2023-05-29T14:52:36;37.00;20.80
65072;DHT22;51663;52.310;17.016;2023-05-29T14:55:38;37.90;20.70
65072;DHT22;51663;52.310;17.016;2023-05-29T14:58:40;38.40;20.10
65072;DHT22;51663;52.310;17.016;2023-05-29T15:01:43;38.10;19.70
65072;DHT22;51663;52.310;17.016;2023-05-29T15:04:45;37.60;19.90
65072;DHT22;51663;52.310;17.016;2023-05-29T15:07:47;37.80;19.90
65072;DHT22;51663;52.310;17.016;2023-05-29T15:10:49;38.10;19.60
65072;DHT22;51663;52.310;17.016;2023-05-29T15:13:51;38.40;19.70
65072;DHT22;51663;52.310;17.016;2023-05-29T15:16:54;37.60;19.80
65072;DHT22;51663;52.310;17.016;2023-05-29T15:19:57;37.70;20.00
65072;DHT22;51663;52.310;17.016;2023-05-29T15:22:59;37.40;20.30
65072;DHT22;51663;52.310;17.016;2023-05-29T15:26:02;37.40;20.10
65072;DHT22;51663;52.310;17.016;2023-05-29T15:29:05;36.00;20.90
65072;DHT22;51663;52.310;17.016;2023-05-29T15:32:07;35.70;21.10
65072;DHT22;51663;52.310;17.016;2023-05-29T15:35:11;36.00;21.00
65072;DHT22;51663;52.310;17.016;2023-05-29T15:38:13;36.40;21.10
65072;DHT22;51663;52.310;17.016;2023-05-29T15:41:16;36.60;21.00
65072;DHT22;51663;52.310;17.016;2023-05-29T15:44:18;37.20;20.30
65072;DHT22;51663;52.310;17.016;2023-05-29T15:47:20;36.40;20.80
65072;DHT22;51663;52.310;17.016;2023-05-29T15:50:22;35.70;21.50
65072;DHT22;51663;52.310;17.016;2023-05-29T15:53:24;35.40;21.40
65072;DHT22;51663;52.310;17.016;2023-05-29T15:56:26;35.60;21.70
65072;DHT22;51663;52.310;17.016;2023-05-29T15:59:30;35.70;21.60
65072;DHT22;51663;52.310;17.016;2023-05-29T16:02:32;35.80;21.40
65072;DHT22;51663;52.310;17.016;2023-05-29T16:05:35;35.30;21.70
65072;DHT22;51663;52.310;17.016;2023-05-29T16:08:37;35.10;21.90
65072;DHT22;51663;52.310;17.016;2023-05-29T16:11:42;35.00;22.00
65072;DHT22;51663;52.310;17.016;2023-05-29T16:14:44;34.80;21.90
65072;DHT22;51663;52.310;17.016;2023-05-29T16:17:47;34.80;22.00
65072;DHT22;51663;52.310;17.016;2023-05-29T16:20:49;34.20;22.70
65072;DHT22;51663;52.310;17.016;2023-05-29T16:23:52;33.50;23.10
65072;DHT22;51663;52.310;17.016;2023-05-29T16:27:00;34.00;23.10
65072;DHT22;51663;52.310;17.016;2023-05-29T16:30:05;34.10;22.50
65072;DHT22;51663;52.310;17.016;2023-05-29T16:33:08;33.80;22.50
65072;DHT22;51663;52.310;17.016;2023-05-29T16:36:10;33.30;23.20
65072;DHT22;51663;52.310;17.016;2023-05-29T16:39:12;34.20;22.60
65072;DHT22;51663;52.310;17.016;2023-05-29T16:42:16;34.00;22.70
65072;DHT22;51663;52.310;17.016;2023-05-29T16:45:18;34.20;22.90
65072;DHT22;51663;52.310;17.016;2023-05-29T16:48:21;34.40;22.30
65072;DHT22;51663;52.310;17.016;2023-05-29T16:51:23;34.00;22.70
65072;DHT22;51663;52.310;17.016;2023-05-29T16:54:25;34.20;22.70
65072;DHT22;51663;52.310;17.016;2023-05-29T16:57:28;34.00;22.20
65072;DHT22;51663;52.310;17.016;2023-05-29T17:00:30;35.00;21.80
65072;DHT22;51663;52.310;17.016;2023-05-29T17:03:32;35.90;21.60
65072;DHT22;51663;52.310;17.016;2023-05-29T17:06:36;36.60;21.20
65072;DHT22;51663;52.310;17.016;2023-05-29T17:09:39;36.80;20.40
65072;DHT22;51663;52.310;17.016;2023-05-29T17:12:41;36.90;20.50
65072;DHT22;51663;52.310;17.016;2023-05-29T17:15:45;36.90;20.40
65072;DHT22;51663;52.310;17.016;2023-05-29T17:18:47;37.00;20.50
65072;DHT22;51663;52.310;17.016;2023-05-29T17:21:49;36.60;20.80
65072;DHT22;51663;52.310;17.016;2023-05-29T17:24:51;36.20;21.10
65072;DHT22;51663;52.310;17.016;2023-05-29T17:27:53;35.80;21.40
65072;DHT22;51663;52.310;17.016;2023-05-29T17:30:56;35.90;21.50
65072;DHT22;51663;52.310;17.016;2023-05-29T17:33:58;36.30;21.60
65072;DHT22;51663;52.310;17.016;2023-05-29T17:37:00;36.30;21.40
65072;DHT22;51663;52.310;17.016;2023-05-29T17:40:02;36.30;21.10
65072;DHT22;51663;52.310;17.016;2023-05-29T17:43:05;36.20;21.20
65072;DHT22;51663;52.310;17.016;2023-05-29T17:46:07;36.30;21.10
65072;DHT22;51663;52.310;17.016;2023-05-29T17:49:10;36.40;21.00
65072;DHT22;51663;52.310;17.016;2023-05-29T17:52:12;36.30;21.10
65072;DHT22;51663;52.310;17.016;2023-05-29T17:55:14;36.00;21.50
65072;DHT22;51663;52.310;17.016;2023-05-29T17:58:16;36.20;22.00
65072;DHT22;51663;52.310;17.016;2023-05-29T18:01:19;35.90;21.50
65072;DHT22;51663;52.310;17.016;2023-05-29T18:04:21;36.20;21.70
65072;DHT22;51663;52.310;17.016;2023-05-29T18:07:23;36.00;21.70
65072;DHT22;51663;52.310;17.016;2023-05-29T18:10:25;35.40;22.20
65072;DHT22;51663;52.310;17.016;2023-05-29T18:13:27;35.50;22.20
65072;DHT22;51663;52.310;17.016;2023-05-29T18:16:37;35.10;22.60
65072;DHT22;51663;52.310;17.016;2023-05-29T18:19:40;34.60;22.90
65072;DHT22;51663;52.310;17.016;2023-05-29T18:22:42;34.40;22.90
65072;DHT22;51663;52.310;17.016;2023-05-29T18:25:45;33.90;23.30
65072;DHT22;51663;52.310;17.016;2023-05-29T18:28:47;34.00;23.30
65072;DHT22;51663;52.310;17.016;2023-05-29T18:31:49;33.70;23.40
65072;DHT22;51663;52.310;17.016;2023-05-29T18:34:51;34.00;23.50
65072;DHT22;51663;52.310;17.016;2023-05-29T18:37:54;34.00;23.30
65072;DHT22;51663;52.310;17.016;2023-05-29T18:40:56;33.80;23.50
65072;DHT22;51663;52.310;17.016;2023-05-29T18:43:58;33.80;23.70
65072;DHT22;51663;52.310;17.016;2023-05-29T18:47:01;33.80;23.60
65072;DHT22;51663;52.310;17.016;2023-05-29T18:50:03;33.70;23.50
65072;DHT22;51663;52.310;17.016;2023-05-29T18:53:05;33.80;23.70
65072;DHT22;51663;52.310;17.016;2023-05-29T18:56:09;33.80;23.60
65072;DHT22;51663;52.310;17.016;2023-05-29T18:59:11;34.10;23.50
65072;DHT22;51663;52.310;17.016;2023-05-29T19:02:15;34.40;23.30
65072;DHT22;51663;52.310;17.016;2023-05-29T19:05:17;34.50;23.30
65072;DHT22;51663;52.310;17.016;2023-05-29T19:08:23;34.70;22.90
65072;DHT22;51663;52.310;17.016;2023-05-29T19:11:26;34.80;23.00
65072;DHT22;51663;52.310;17.016;2023-05-29T19:14:28;34.40;23.20
65072;DHT22;51663;52.310;17.016;2023-05-29T19:17:30;33.90;23.50